Red Bird, Missouri
Current Conditions -  °F | °C
As of 2:06 PM on Sunday 21 Dec 2014 (Local Time) from KVIH Reporting Station
Haze Haze  
Wind Chill: 32°   Ceiling: 800
Heat Index: 39°   Visibility: 5mi
Dew Point: 36°   Wind: 12mph
Humidity: 89%   Direction: 150°SSE
Pressure: 29.98"   Gusts: NA
Location:  38.3239°N, 91.6268°W
Report Text: KVIH 212006Z AUTO 15010KT 5SM BR OVC008 04/02 A2998 RMK AO2 CIG 007V011 T00390022
Loading
Personal Weather Stations






























Interactive Weather Map New forecast layout! Learn more

10-Day Weather Forecast

Advertisements
Track Severe Weather on mobile